Time;durP1;ratioP1;P1;durP2;ratioP2;P2;SDS_P1;SDS_P2;PMS_P1;PMS_P2;Temp;Humidity;BMP_temperature;BMP_pressure;BME280_temperature;BME280_humidity;BME280_pressure;Samples;Min_cycle;Max_cycle;Signal;HPM_P1;HPM_P2
2021/06/10 00:00:38;;;;;;;36.67;32.83;;;;;;;;;;5030259;28;20030;-66
2021/06/10 00:03:04;;;;;;;35.80;31.98;;;;;;;;;;5029824;28;20051;-67
2021/06/10 00:05:30;;;;;;;38.17;34.00;;;;;;;;;;5030919;28;20024;-66
2021/06/10 00:07:56;;;;;;;36.75;32.88;;;;;;;;;;5012254;28;20028;-66
2021/06/10 00:10:23;;;;;;;36.60;32.70;;;;;;;;;;5030511;28;20029;-66
2021/06/10 00:12:49;;;;;;;36.72;32.80;;;;;;;;;;5030439;28;20520;-65
2021/06/10 00:15:17;;;;;;;38.30;34.20;;;;;;;;;;5012628;28;20033;-65
2021/06/10 00:17:43;;;;;;;36.30;32.33;;;;;;;;;;5012816;28;20121;-66
2021/06/10 00:20:11;;;;;;;35.78;31.80;;;;;;;;;;5012943;28;20026;-65
2021/06/10 00:22:37;;;;;;;36.85;33.03;;;;;;;;;;5031551;28;20079;-65
2021/06/10 00:25:04;;;;;;;34.83;31.23;;;;;;;;;;5031303;28;20037;-66
2021/06/10 00:27:30;;;;;;;35.40;31.70;;;;;;;;;;5014201;28;20473;-65
2021/06/10 00:29:56;;;;;;;37.28;33.50;;;;;;;;;;5031973;28;20060;-66
2021/06/10 00:32:22;;;;;;;36.13;32.33;;;;;;;;;;5031711;28;20065;-66
2021/06/10 00:34:48;;;;;;;37.17;33.25;;;;;;;;;;5018394;28;20128;-66
2021/06/10 00:37:14;;;;;;;37.28;33.38;;;;;;;;;;5018471;28;20033;-66
2021/06/10 00:39:40;;;;;;;37.25;33.40;;;;;;;;;;5036077;28;20061;-65
2021/06/10 00:42:07;;;;;;;37.67;33.65;;;;;;;;;;5035742;28;20029;-65
2021/06/10 00:44:33;;;;;;;37.53;33.40;;;;;;;;;;5035792;28;20103;-65
2021/06/10 00:46:59;;;;;;;37.35;33.17;;;;;;;;;;5035982;28;20218;-66
2021/06/10 00:49:25;;;;;;;39.63;34.05;;;;;;;;;;5035825;28;20083;-65
2021/06/10 00:51:51;;;;;;;38.15;34.05;;;;;;;;;;5017905;28;20061;-67
2021/06/10 00:54:18;;;;;;;37.83;33.78;;;;;;;;;;5035478;28;20091;-67
2021/06/10 00:56:44;;;;;;;39.22;35.03;;;;;;;;;;5035935;28;20096;-67
2021/06/10 00:59:10;;;;;;;36.90;32.95;;;;;;;;;;5035653;28;20477;-66
2021/06/10 01:01:36;;;;;;;36.95;33.05;;;;;;;;;;5035544;28;20116;-66
2021/06/10 01:04:02;;;;;;;38.78;34.67;;;;;;;;;;5035227;28;20056;-68
2021/06/10 01:06:34;;;;;;;40.28;36.13;;;;;;;;;;5035134;28;20025;-66
2021/06/10 01:09:09;;;;;;;39.10;35.00;;;;;;;;;;5017658;28;20029;-66
2021/06/10 01:11:52;;;;;;;39.80;35.67;;;;;;;;;;5035416;28;20504;-67
2021/06/10 01:14:26;;;;;;;40.92;36.38;;;;;;;;;;5035116;28;20434;-65
2021/06/10 01:16:53;;;;;;;40.97;36.58;;;;;;;;;;5035785;28;20328;-66
2021/06/10 01:19:29;;;;;;;41.00;36.67;;;;;;;;;;5035581;28;20026;-66
2021/06/10 01:21:56;;;;;;;40.63;36.35;;;;;;;;;;5035084;28;20481;-66
2021/06/10 01:24:41;;;;;;;40.97;36.50;;;;;;;;;;5016811;28;20032;-66
2021/06/10 01:27:28;;;;;;;41.63;37.25;;;;;;;;;;5035024;28;20029;-65
2021/06/10 01:30:05;;;;;;;42.53;38.10;;;;;;;;;;5017269;28;20013;-66
2021/06/10 01:32:33;;;;;;;43.13;38.50;;;;;;;;;;5034889;28;20026;-66
2021/06/10 01:34:59;;;;;;;44.58;39.92;;;;;;;;;;5034769;28;20100;-65
2021/06/10 01:37:26;;;;;;;44.83;40.20;;;;;;;;;;5017342;28;20078;-66
2021/06/10 01:39:52;;;;;;;44.42;39.65;;;;;;;;;;5034796;28;20037;-64
2021/06/10 01:42:18;;;;;;;43.08;38.38;;;;;;;;;;5034468;28;20037;-65
2021/06/10 01:44:45;;;;;;;44.53;39.85;;;;;;;;;;5016352;28;20059;-67
2021/06/10 01:47:11;;;;;;;44.72;39.90;;;;;;;;;;5034726;28;20095;-66
2021/06/10 01:49:37;;;;;;;45.60;40.80;;;;;;;;;;5034663;28;20024;-66
2021/06/10 01:52:06;;;;;;;45.88;41.05;;;;;;;;;;5034597;28;20577;-66
2021/06/10 01:54:34;;;;;;;45.28;40.47;;;;;;;;;;5034271;28;20105;-67
2021/06/10 01:57:01;;;;;;;44.80;39.97;;;;;;;;;;5034754;28;20021;-66
2021/06/10 01:59:27;;;;;;;46.13;41.33;;;;;;;;;;5035069;28;20031;-66
2021/06/10 02:01:53;;;;;;;47.85;42.88;;;;;;;;;;5016999;28;20018;-65
2021/06/10 02:04:22;;;;;;;46.53;41.63;;;;;;;;;;5034452;28;20117;-66
2021/06/10 02:06:49;;;;;;;46.70;41.90;;;;;;;;;;5016738;28;20029;-66
2021/06/10 02:09:15;;;;;;;47.95;42.78;;;;;;;;;;5034932;28;20100;-66
2021/06/10 02:11:42;;;;;;;47.33;42.22;;;;;;;;;;5034433;28;20080;-65
2021/06/10 02:14:08;;;;;;;47.13;42.30;;;;;;;;;;5035041;28;20026;-66
2021/06/10 02:16:38;;;;;;;49.13;44.03;;;;;;;;;;5034627;28;20025;-65
2021/06/10 02:19:04;;;;;;;47.80;42.63;;;;;;;;;;5034538;28;20029;-65
2021/06/10 02:21:31;;;;;;;50.05;44.65;;;;;;;;;;5016832;28;20125;-66
2021/06/10 02:23:57;;;;;;;48.55;43.30;;;;;;;;;;5034200;28;20025;-66
2021/06/10 02:26:23;;;;;;;48.50;43.40;;;;;;;;;;5034161;28;20389;-66
2021/06/10 02:28:49;;;;;;;49.70;44.50;;;;;;;;;;5017935;28;20121;-66
2021/06/10 02:31:15;;;;;;;47.58;42.60;;;;;;;;;;5035882;28;20029;-66
2021/06/10 02:33:42;;;;;;;53.08;47.35;;;;;;;;;;5035248;28;20041;-66
2021/06/10 02:36:09;;;;;;;50.38;45.05;;;;;;;;;;5016928;28;20036;-66
2021/06/10 02:38:37;;;;;;;48.40;43.30;;;;;;;;;;5034949;28;20061;-67
2021/06/10 02:41:04;;;;;;;49.20;43.72;;;;;;;;;;5035069;28;20025;-66
2021/06/10 02:43:31;;;;;;;50.03;44.80;;;;;;;;;;5016607;28;20114;-66
2021/06/10 02:45:58;;;;;;;50.17;44.80;;;;;;;;;;5034867;28;20095;-65
2021/06/10 02:48:25;;;;;;;51.38;45.95;;;;;;;;;;5034863;28;20021;-67
2021/06/10 02:50:51;;;;;;;50.25;44.97;;;;;;;;;;5034241;28;20024;-66
2021/06/10 02:53:20;;;;;;;51.80;46.30;;;;;;;;;;5034351;28;20523;-66
2021/06/10 02:55:47;;;;;;;51.72;44.70;;;;;;;;;;5016235;28;20428;-65
2021/06/10 02:58:17;;;;;;;50.20;44.80;;;;;;;;;;5034865;28;20052;-66
2021/06/10 03:00:44;;;;;;;54.10;48.35;;;;;;;;;;5017206;28;20037;-65
2021/06/10 03:03:12;;;;;;;48.95;43.67;;;;;;;;;;5017595;28;20426;-65
2021/06/10 03:05:38;;;;;;;53.28;45.70;;;;;;;;;;5017273;28;20017;-66
2021/06/10 03:08:04;;;;;;;49.95;44.63;;;;;;;;;;5035448;28;20018;-66
2021/06/10 03:10:32;;;;;;;50.10;44.72;;;;;;;;;;5034246;28;20417;-65
2021/06/10 03:12:59;;;;;;;51.58;45.63;;;;;;;;;;5015683;28;20401;-65
2021/06/10 03:15:26;;;;;;;51.53;46.03;;;;;;;;;;5033623;28;20073;-66
2021/06/10 03:17:52;;;;;;;53.08;47.47;;;;;;;;;;5034233;28;20037;-66
2021/06/10 03:20:18;;;;;;;53.10;47.50;;;;;;;;;;5034238;28;20034;-66
2021/06/10 03:22:44;;;;;;;54.42;48.78;;;;;;;;;;5016400;28;20045;-65
2021/06/10 03:25:10;;;;;;;56.38;47.33;;;;;;;;;;5033464;28;20025;-66
2021/06/10 03:27:37;;;;;;;52.53;46.88;;;;;;;;;;5033554;28;20017;-66
2021/06/10 03:30:04;;;;;;;52.25;46.83;;;;;;;;;;5034259;28;20022;-66
2021/06/10 03:32:32;;;;;;;49.13;43.97;;;;;;;;;;5034369;28;20485;-65
2021/06/10 03:34:58;;;;;;;53.30;47.50;;;;;;;;;;5033406;28;20039;-66
2021/06/10 03:37:24;;;;;;;51.78;46.25;;;;;;;;;;5016357;28;20045;-66
2021/06/10 03:39:51;;;;;;;54.95;47.88;;;;;;;;;;5034379;28;20075;-65
2021/06/10 03:42:18;;;;;;;54.53;46.75;;;;;;;;;;5033722;28;20034;-65
2021/06/10 03:44:44;;;;;;;50.45;45.05;;;;;;;;;;5033904;28;20029;-65
2021/06/10 03:47:12;;;;;;;55.28;46.88;;;;;;;;;;5033843;28;20022;-65
2021/06/10 03:49:38;;;;;;;50.72;45.40;;;;;;;;;;5034022;28;20025;-65
2021/06/10 03:52:05;;;;;;;51.97;46.05;;;;;;;;;;5033861;28;20030;-66
2021/06/10 03:54:31;;;;;;;51.20;45.60;;;;;;;;;;5033809;28;20030;-65
2021/06/10 03:56:57;;;;;;;50.28;44.65;;;;;;;;;;5016009;28;20481;-66
2021/06/10 03:59:23;;;;;;;52.20;46.63;;;;;;;;;;5034061;28;20032;-66
2021/06/10 04:01:49;;;;;;;52.80;46.47;;;;;;;;;;5015631;28;20021;-66
2021/06/10 04:04:16;;;;;;;51.95;46.33;;;;;;;;;;5034328;28;20433;-66
2021/06/10 04:06:42;;;;;;;52.73;46.97;;;;;;;;;;5032833;28;20029;-65
2021/06/10 04:09:09;;;;;;;51.35;45.80;;;;;;;;;;5033148;28;20435;-65
2021/06/10 04:11:36;;;;;;;50.83;45.38;;;;;;;;;;5033101;28;20033;-66
2021/06/10 04:14:02;;;;;;;50.55;45.08;;;;;;;;;;5033092;28;20089;-66
2021/06/10 04:16:28;;;;;;;52.22;46.38;;;;;;;;;;5033295;28;20049;-65
2021/06/10 04:18:54;;;;;;;53.33;47.58;;;;;;;;;;5032988;28;20025;-66
2021/06/10 04:21:20;;;;;;;60.33;47.83;;;;;;;;;;5033377;28;20025;-66
2021/06/10 04:23:47;;;;;;;51.67;45.58;;;;;;;;;;5034289;28;20029;-65
2021/06/10 04:26:13;;;;;;;55.08;47.28;;;;;;;;;;5034206;28;20025;-65
2021/06/10 04:28:40;;;;;;;51.17;45.42;;;;;;;;;;5034211;28;20036;-66
2021/06/10 04:31:06;;;;;;;53.60;48.05;;;;;;;;;;5034223;28;20446;-66
2021/06/10 04:33:32;;;;;;;53.08;47.28;;;;;;;;;;5033599;28;20029;-65
2021/06/10 04:35:58;;;;;;;52.65;47.00;;;;;;;;;;5033796;28;20510;-66
2021/06/10 04:38:23;;;;;;;53.42;47.65;;;;;;;;;;5015984;28;20087;-65
2021/06/10 04:40:49;;;;;;;54.17;47.30;;;;;;;;;;5034223;28;20060;-65
2021/06/10 04:43:15;;;;;;;51.80;45.97;;;;;;;;;;5033491;28;20555;-66
2021/06/10 04:45:41;;;;;;;53.50;47.70;;;;;;;;;;5032865;28;20054;-66
2021/06/10 04:48:07;;;;;;;53.83;48.03;;;;;;;;;;5033342;28;20045;-66
2021/06/10 04:50:35;;;;;;;55.38;49.45;;;;;;;;;;5033159;28;20052;-66
2021/06/10 04:53:01;;;;;;;53.75;47.65;;;;;;;;;;5033303;28;20105;-66
2021/06/10 04:55:27;;;;;;;52.28;46.63;;;;;;;;;;5032970;28;20030;-66
2021/06/10 04:57:53;;;;;;;53.72;48.13;;;;;;;;;;5033236;28;20029;-66
2021/06/10 05:00:19;;;;;;;55.53;47.85;;;;;;;;;;5033296;28;20488;-67
2021/06/10 05:02:45;;;;;;;50.63;45.33;;;;;;;;;;5032889;28;20021;-66
2021/06/10 05:05:11;;;;;;;56.53;47.47;;;;;;;;;;5015057;28;20026;-67
2021/06/10 05:07:37;;;;;;;53.50;45.58;;;;;;;;;;5033305;28;20033;-67
2021/06/10 05:10:04;;;;;;;50.92;45.45;;;;;;;;;;5014823;28;20032;-66
2021/06/10 05:12:31;;;;;;;52.83;46.35;;;;;;;;;;5014885;28;20039;-67
2021/06/10 05:14:57;;;;;;;53.78;46.65;;;;;;;;;;5032094;28;20096;-65
2021/06/10 05:17:23;;;;;;;50.20;44.58;;;;;;;;;;5031512;28;20029;-64
2021/06/10 05:19:49;;;;;;;49.53;44.08;;;;;;;;;;5034454;28;20032;-66
2021/06/10 05:22:14;;;;;;;49.70;44.08;;;;;;;;;;5036569;28;20029;-66
2021/06/10 05:24:41;;;;;;;47.38;42.20;;;;;;;;;;5035943;28;20098;-65
2021/06/10 05:27:09;;;;;;;50.58;43.00;;;;;;;;;;5018453;28;20157;-66
2021/06/10 05:29:35;;;;;;;44.42;39.55;;;;;;;;;;5036639;28;20032;-65
2021/06/10 05:32:01;;;;;;;41.35;36.53;;;;;;;;;;5035940;28;20029;-66
2021/06/10 05:34:27;;;;;;;46.20;37.83;;;;;;;;;;5035482;28;20033;-65
2021/06/10 05:36:53;;;;;;;41.40;35.22;;;;;;;;;;5035890;28;20025;-66
2021/06/10 05:39:21;;;;;;;41.92;36.83;;;;;;;;;;5018047;28;20021;-65
2021/06/10 05:41:47;;;;;;;43.47;38.70;;;;;;;;;;5017988;28;20029;-65
2021/06/10 05:44:13;;;;;;;41.67;36.05;;;;;;;;;;5018181;28;20504;-65
2021/06/10 05:46:40;;;;;;;42.90;38.20;;;;;;;;;;5036744;28;20041;-66
2021/06/10 05:49:06;;;;;;;43.05;38.25;;;;;;;;;;5036032;28;20021;-65
2021/06/10 05:51:32;;;;;;;44.83;38.03;;;;;;;;;;5036028;28;20151;-66
2021/06/10 05:53:58;;;;;;;43.70;37.55;;;;;;;;;;5034909;28;20064;-65
2021/06/10 05:56:24;;;;;;;44.38;37.88;;;;;;;;;;5035251;28;20091;-66
2021/06/10 05:58:50;;;;;;;44.58;38.42;;;;;;;;;;5035871;28;20478;-66
2021/06/10 06:01:16;;;;;;;44.50;38.08;;;;;;;;;;5035884;28;20100;-63
2021/06/10 06:03:44;;;;;;;41.78;36.25;;;;;;;;;;5018075;28;20029;-66
2021/06/10 06:06:10;;;;;;;39.17;34.17;;;;;;;;;;5017858;28;20017;-66
2021/06/10 06:08:36;;;;;;;39.30;34.33;;;;;;;;;;5034866;28;20104;-66
2021/06/10 06:11:03;;;;;;;40.35;35.30;;;;;;;;;;5016971;28;20366;-65
2021/06/10 06:13:48;;;;;;;39.58;35.15;;;;;;;;;;5034287;28;20053;-65
2021/06/10 06:16:18;;;;;;;38.03;33.92;;;;;;;;;;5034400;28;20025;-65
2021/06/10 06:18:48;;;;;;;38.17;32.90;;;;;;;;;;5035078;28;20454;-66
2021/06/10 06:21:14;;;;;;;36.05;32.05;;;;;;;;;;5034828;28;20037;-67
2021/06/10 06:23:43;;;;;;;37.45;32.75;;;;;;;;;;5016927;28;20025;-66
2021/06/10 06:26:10;;;;;;;38.10;33.92;;;;;;;;;;5034231;28;20028;-66
2021/06/10 06:28:36;;;;;;;37.72;31.23;;;;;;;;;;5031685;28;20021;-66
2021/06/10 06:31:03;;;;;;;35.42;31.08;;;;;;;;;;5051139;28;20021;-70
2021/06/10 06:33:29;;;;;;;39.13;32.20;;;;;;;;;;5023167;28;20060;-67
2021/06/10 06:35:55;;;;;;;37.17;32.67;;;;;;;;;;5018043;28;20034;-68
2021/06/10 06:38:21;;;;;;;38.25;33.20;;;;;;;;;;4998053;28;20533;-67
2021/06/10 06:40:48;;;;;;;39.97;34.25;;;;;;;;;;5015158;28;20037;-65
2021/06/10 06:43:15;;;;;;;35.50;31.63;;;;;;;;;;5016933;28;20034;-67
2021/06/10 06:45:41;;;;;;;34.58;30.67;;;;;;;;;;5028266;28;20038;-68
2021/06/10 06:48:08;;;;;;;34.28;30.48;;;;;;;;;;5037198;28;20029;-67
2021/06/10 06:50:34;;;;;;;35.33;31.52;;;;;;;;;;5037348;28;20026;-65
2021/06/10 06:53:01;;;;;;;38.28;31.55;;;;;;;;;;5018444;28;20164;-64
2021/06/10 06:55:27;;;;;;;34.13;28.63;;;;;;;;;;5035507;28;20175;-66
2021/06/10 06:57:53;;;;;;;35.40;28.10;;;;;;;;;;5017852;28;20030;-64
2021/06/10 07:00:20;;;;;;;35.60;28.83;;;;;;;;;;5035933;28;20158;-65
2021/06/10 07:02:46;;;;;;;33.75;28.92;;;;;;;;;;5017857;28;20076;-67
2021/06/10 07:05:12;;;;;;;31.33;25.67;;;;;;;;;;5017529;28;20921;-68
2021/06/10 07:07:38;;;;;;;30.88;26.30;;;;;;;;;;5036227;28;20044;-67
2021/06/10 07:10:05;;;;;;;31.48;27.35;;;;;;;;;;5035532;28;20025;-66
2021/06/10 07:12:31;;;;;;;27.67;23.17;;;;;;;;;;5026568;28;20048;-65
2021/06/10 07:14:58;;;;;;;25.27;20.85;;;;;;;;;;5026467;28;20018;-66
2021/06/10 07:17:25;;;;;;;26.00;20.35;;;;;;;;;;5024823;28;20010;-66
2021/06/10 07:19:54;;;;;;;27.42;20.98;;;;;;;;;;5015649;28;20118;-66
2021/06/10 07:22:20;;;;;;;25.48;20.05;;;;;;;;;;5033329;28;20056;-65
2021/06/10 07:24:47;;;;;;;23.75;19.10;;;;;;;;;;5032066;28;20025;-66
2021/06/10 07:27:16;;;;;;;26.98;20.38;;;;;;;;;;5024555;28;20049;-68
2021/06/10 07:29:43;;;;;;;25.23;20.20;;;;;;;;;;4997828;28;20026;-65
2021/06/10 07:32:09;;;;;;;24.27;19.42;;;;;;;;;;5014864;28;20490;-68
2021/06/10 07:34:37;;;;;;;23.55;18.77;;;;;;;;;;4997688;28;20022;-65
2021/06/10 07:37:03;;;;;;;21.43;18.53;;;;;;;;;;5015650;28;20026;-67
2021/06/10 07:39:29;;;;;;;25.38;20.60;;;;;;;;;;5005371;28;20036;-65
2021/06/10 07:41:55;;;;;;;28.13;20.65;;;;;;;;;;5022316;28;20070;-66
2021/06/10 07:44:21;;;;;;;24.52;19.08;;;;;;;;;;5023233;28;20499;-67
2021/06/10 07:46:47;;;;;;;22.52;18.40;;;;;;;;;;5023936;28;20108;-66
2021/06/10 07:49:13;;;;;;;24.25;19.75;;;;;;;;;;5032353;28;20109;-69
2021/06/10 07:51:39;;;;;;;21.58;16.88;;;;;;;;;;5030643;28;20024;-69
2021/06/10 07:54:05;;;;;;;21.20;17.52;;;;;;;;;;5022369;28;20052;-65
2021/06/10 07:56:31;;;;;;;23.02;16.27;;;;;;;;;;5022645;28;20037;-66
2021/06/10 07:58:57;;;;;;;20.92;16.30;;;;;;;;;;5031070;28;20025;-65
2021/06/10 08:01:23;;;;;;;20.52;15.55;;;;;;;;;;5028712;28;20441;-64
2021/06/10 08:03:49;;;;;;;20.58;15.13;;;;;;;;;;5030340;28;20034;-65
2021/06/10 08:06:15;;;;;;;19.48;14.85;;;;;;;;;;5016989;28;20028;-65
2021/06/10 08:08:41;;;;;;;18.17;14.38;;;;;;;;;;5034535;28;20029;-67
2021/06/10 08:11:10;;;;;;;19.35;15.13;;;;;;;;;;5018745;28;20021;-64
2021/06/10 08:13:36;;;;;;;19.92;14.20;;;;;;;;;;5019052;28;20030;-67
2021/06/10 08:16:02;;;;;;;19.65;14.80;;;;;;;;;;5016036;28;20034;-65
2021/06/10 08:18:29;;;;;;;20.85;14.65;;;;;;;;;;5032644;28;20384;-67
2021/06/10 08:20:58;;;;;;;18.55;14.80;;;;;;;;;;5016096;28;20017;-60
2021/06/10 08:23:25;;;;;;;20.33;14.18;;;;;;;;;;5011864;28;20488;-62
2021/06/10 08:25:54;;;;;;;17.73;13.57;;;;;;;;;;5014518;28;20030;-62
2021/06/10 08:28:20;;;;;;;18.90;14.07;;;;;;;;;;5016962;28;20026;-62
2021/06/10 08:30:46;;;;;;;17.38;13.07;;;;;;;;;;5011820;28;20018;-62
2021/06/10 08:33:12;;;;;;;19.02;13.30;;;;;;;;;;4993839;28;20030;-62
2021/06/10 08:35:38;;;;;;;20.17;14.63;;;;;;;;;;4994304;28;20026;-62
2021/06/10 08:38:09;;;;;;;18.15;13.90;;;;;;;;;;5012311;28;20026;-62
2021/06/10 08:40:37;;;;;;;18.90;14.32;;;;;;;;;;4994525;28;20188;-62
2021/06/10 08:43:03;;;;;;;20.23;14.50;;;;;;;;;;5011553;28;20531;-62
2021/06/10 08:45:30;;;;;;;19.25;14.00;;;;;;;;;;4994079;28;20076;-62
2021/06/10 08:47:58;;;;;;;20.08;15.65;;;21.90;99.90;;;;;;5011820;28;20022;-62
2021/06/10 08:50:27;;;;;;;19.65;15.77;;;23.00;99.90;;;;;;5011806;28;20026;-62
2021/06/10 08:52:57;;;;;;;19.67;16.08;;;22.80;99.90;;;;;;5011321;28;20046;-65
2021/06/10 08:55:24;;;;;;;21.08;15.68;;;22.80;99.90;;;;;;5021631;28;20033;-66
2021/06/10 08:57:50;;;;;;;20.73;15.95;;;22.80;99.90;;;;;;5023671;28;20075;-68
2021/06/10 09:00:19;;;;;;;21.08;16.83;;;23.00;99.90;;;;;;5023897;28;20108;-66
2021/06/10 09:02:55;;;;;;;25.50;17.35;;;23.00;99.90;;;;;;5026192;28;20036;-66
2021/06/10 09:05:21;;;;;;;20.42;16.13;;;22.90;99.90;;;;;;5004926;28;20405;-66
2021/06/10 09:07:55;;;;;;;19.42;15.98;;;22.80;99.90;;;;;;5034056;28;20022;-66
2021/06/10 09:10:26;;;;;;;20.95;16.92;;;22.90;99.90;;;;;;5034796;28;20030;-67
2021/06/10 09:12:57;;;;;;;23.45;15.25;;;22.90;99.90;;;;;;5017070;28;20032;-66
2021/06/10 09:15:25;;;;;;;22.60;16.23;;;23.10;99.90;;;;;;5016656;28;20033;-66
2021/06/10 09:17:51;;;;;;;;;;;23.20;99.90;;;;;;5028620;28;20025;-66
2021/06/10 09:20:20;;;;;;;20.83;15.38;;;23.20;99.90;;;;;;5023779;28;19905;-66
2021/06/10 09:22:48;;;;;;;19.55;14.63;;;23.10;99.90;;;;;;5023292;28;20025;-66
2021/06/10 09:25:19;;;;;;;18.52;14.85;;;23.20;99.90;;;;;;5021718;28;20354;-66
2021/06/10 09:27:52;;;;;;;20.48;15.90;;;23.40;99.90;;;;;;5014295;28;20037;-66
2021/06/10 09:30:37;;;;;;;17.88;14.32;;;23.50;99.90;;;;;;5012344;28;20117;-65
2021/06/10 09:33:10;;;;;;;18.00;14.40;;;23.50;99.90;;;;;;5014571;28;20489;-66
2021/06/10 09:35:38;;;;;;;20.23;15.73;;;23.60;99.90;;;;;;4997063;28;20512;-66
2021/06/10 09:38:05;;;;;;;;;;;23.70;99.90;;;;;;5015073;28;20429;-66
2021/06/10 09:40:32;;;;;;;19.10;15.80;;;23.70;99.90;;;;;;5014694;28;19916;-66
2021/06/10 09:42:58;;;;;;;19.38;14.73;;;23.80;99.90;;;;;;5014732;28;20038;-66
2021/06/10 09:45:29;;;;;;;19.42;14.38;;;23.80;99.90;;;;;;5014135;28;20486;-67
2021/06/10 09:47:59;;;;;;;19.55;14.73;;;23.80;99.90;;;;;;5014554;28;20026;-66
2021/06/10 09:50:57;;;;;;;18.98;14.73;;;23.90;99.90;;;;;;4996719;28;20022;-67
2021/06/10 09:53:25;;;;;;;18.88;14.38;;;23.80;99.90;;;;;;5014057;28;20425;-66
2021/06/10 09:55:56;;;;;;;19.92;14.82;;;23.70;99.90;;;;;;5014228;28;20486;-66
2021/06/10 09:58:35;;;;;;;19.00;16.08;;;23.80;99.90;;;;;;5012593;28;20049;-66
2021/06/10 10:01:10;;;;;;;19.30;14.52;;;23.90;99.90;;;;;;5014130;28;20457;-63
2021/06/10 10:03:41;;;;;;;21.20;15.20;;;23.90;99.90;;;;;;5014695;28;20029;-62
2021/06/10 10:06:27;;;;;;;20.63;15.50;;;23.90;99.90;;;;;;5013253;28;20022;-62
2021/06/10 10:09:02;;;;;;;21.60;15.10;;;24.10;99.90;;;;;;4995428;28;20568;-62
2021/06/10 10:11:30;;;;;;;17.98;14.25;;;24.10;99.90;;;;;;5013995;28;20032;-62
2021/06/10 10:13:57;;;;;;;18.58;15.68;;;24.10;99.90;;;;;;5013599;28;20106;-62
2021/06/10 10:16:29;;;;;;;19.58;15.40;;;24.10;99.90;;;;;;5012692;28;20029;-64
2021/06/10 10:18:56;;;;;;;18.58;14.23;;;24.20;99.90;;;;;;4995983;28;20438;-63
2021/06/10 10:21:27;;;;;;;18.98;15.77;;;24.30;99.90;;;;;;5013689;28;20045;-63
2021/06/10 10:23:56;;;;;;;19.63;15.05;;;24.10;99.90;;;;;;5012950;28;20030;-63
2021/06/10 10:26:21;;;;;;;18.17;14.63;;;24.20;99.90;;;;;;5013118;28;20401;-63
2021/06/10 10:28:48;;;;;;;22.13;16.13;;;24.20;99.90;;;;;;5013199;28;20026;-63
2021/06/10 10:31:14;;;;;;;18.48;15.68;;;24.10;99.90;;;;;;5013836;28;20022;-63
2021/06/10 10:33:44;;;;;;;20.63;16.30;;;24.30;99.90;;;;;;5013175;28;20069;-63
2021/06/10 10:36:24;;;;;;;18.95;16.10;;;24.40;99.90;;;;;;5013132;28;20026;-63
2021/06/10 10:39:01;;;;;;;19.38;15.75;;;24.40;99.90;;;;;;5013628;28;20478;-63
2021/06/10 10:41:28;;;;;;;20.50;17.05;;;24.30;99.90;;;;;;4995479;28;20120;-64
2021/06/10 10:44:21;;;;;;;18.48;14.60;;;24.40;99.90;;;;;;5013273;28;20077;-64
2021/06/10 10:46:59;;;;;;;18.70;15.77;;;24.50;99.90;;;;;;5013242;28;20037;-63
2021/06/10 10:49:26;;;;;;;17.65;15.48;;;24.40;99.90;;;;;;5013739;28;20429;-62
2021/06/10 10:51:52;;;;;;;18.73;15.55;;;24.50;99.90;;;;;;5013249;28;20029;-63
2021/06/10 10:54:32;;;;;;;19.00;16.15;;;24.60;99.90;;;;;;4995734;28;20029;-63
2021/06/10 10:56:59;;;;;;;18.55;16.00;;;24.90;99.90;;;;;;4995854;28;20049;-63
2021/06/10 10:59:24;;;;;;;21.00;15.38;;;24.90;99.90;;;;;;5013297;28;20049;-64
2021/06/10 11:02:03;;;;;;;21.02;16.52;;;24.70;99.90;;;;;;4995432;28;20037;-63
2021/06/10 11:04:47;;;;;;;;;;;24.60;99.90;;;;;;5013117;28;20041;-63
2021/06/10 11:07:35;;;;;;;19.50;15.60;;;24.80;99.90;;;;;;5012896;28;20041;-63
2021/06/10 11:10:07;;;;;;;18.88;15.63;;;25.20;99.90;;;;;;4989239;28;20034;-64
2021/06/10 11:12:43;;;;;;;17.77;15.23;;;25.10;99.90;;;;;;5012290;28;20026;-63
2021/06/10 11:15:24;;;;;;;18.77;16.58;;;25.40;99.90;;;;;;4994944;28;20022;-63
2021/06/10 11:17:52;;;;;;;19.48;17.45;;;25.90;99.90;;;;;;5011734;28;20018;-63
2021/06/10 11:20:18;;;;;;;18.70;16.70;;;26.60;99.80;;;;;;5012444;28;20030;-63
2021/06/10 11:22:49;;;;;;;19.02;17.02;;;;;;;;;;5011884;28;20300;-63
2021/06/10 11:25:27;;;;;;;19.63;16.50;;;;;;;;;;4978378;28;20113;-63
2021/06/10 11:27:56;;;;;;;;;;;;;;;;;;4994933;28;20109;-63
2021/06/10 11:30:22;;;;;;;18.65;16.67;;;27.30;99.80;;;;;;5011947;28;20407;-64
2021/06/10 11:33:04;;;;;;;17.90;16.00;;;28.50;97.20;;;;;;4994635;28;20076;-64
2021/06/10 11:35:43;;;;;;;17.48;15.57;;;29.30;96.80;;;;;;5012016;28;20106;-63
2021/06/10 11:38:31;;;;;;;18.17;15.77;;;30.00;96.70;;;;;;5012416;28;20109;-63
2021/06/10 11:41:00;;;;;;;19.38;16.08;;;;;;;;;;5012661;28;20394;-63
2021/06/10 11:43:27;;;;;;;17.92;16.02;;;;;;;;;;5012279;28;20113;-63
2021/06/10 11:46:03;;;;;;;19.60;16.50;;;;;;;;;;5012363;28;20026;-64
2021/06/10 11:48:37;;;;;;;18.88;16.88;;;;;;;;;;5011937;28;20072;-63
2021/06/10 11:51:04;;;;;;;20.48;17.40;;;29.00;95.90;;;;;;5012116;28;20021;-63
2021/06/10 11:53:30;;;;;;;20.60;16.33;;;29.40;96.00;;;;;;4994547;28;20120;-63
2021/06/10 11:55:57;;;;;;;20.95;16.92;;;28.80;95.10;;;;;;4994663;28;20384;-62
2021/06/10 11:58:30;;;;;;;18.50;16.52;;;29.20;94.90;;;;;;5012495;28;20417;-63
2021/06/10 12:01:04;;;;;;;19.58;17.25;;;29.50;94.90;;;;;;5011654;28;20018;-62
2021/06/10 12:03:34;;;;;;;21.20;17.50;;;30.30;94.70;;;;;;5011770;28;20497;-62
2021/06/10 12:06:01;;;;;;;19.40;15.82;;;;;;;;;;4994718;28;20196;-63
2021/06/10 12:08:27;;;;;;;18.50;16.60;;;;;;;;;;5011330;28;20082;-62
2021/06/10 12:10:59;;;;;;;18.92;16.88;;;30.30;93.60;;;;;;5011849;28;20497;-63
2021/06/10 12:13:42;;;;;;;18.88;16.88;;;30.00;93.80;;;;;;5011909;28;20030;-63
2021/06/10 12:16:10;;;;;;;18.55;16.55;;;30.60;93.10;;;;;;4993654;28;20026;-64
2021/06/10 12:18:36;;;;;;;;;;;30.80;91.90;;;;;;5012343;28;20025;-63
2021/06/10 12:21:04;;;;;;;19.77;17.70;;;;;;;;;;5012306;28;19905;-63
2021/06/10 12:23:36;;;;;;;20.48;17.90;;;30.90;91.80;;;;;;5011898;28;20054;-63
2021/06/10 12:26:07;;;;;;;20.00;17.95;;;31.40;92.00;;;;;;4994006;28;20459;-63
2021/06/10 12:28:40;;;;;;;19.77;17.70;;;;;;;;;;5013659;28;20018;-63
2021/06/10 12:31:08;;;;;;;19.20;17.20;;;30.80;91.70;;;;;;5016617;28;20026;-62
2021/06/10 12:33:35;;;;;;;19.02;16.73;;;29.10;92.10;;;;;;5016768;28;20519;-63
2021/06/10 12:36:04;;;;;;;19.77;17.67;;;29.40;92.00;;;;;;5015234;28;20045;-60
2021/06/10 12:38:37;;;;;;;22.35;18.08;;;30.60;91.60;;;;;;5015241;28;20037;-64
2021/06/10 12:41:18;;;;;;;21.30;18.00;;;;;;;;;;5014983;28;20022;-63
2021/06/10 12:43:45;;;;;;;20.02;17.42;;;31.60;90.80;;;;;;5015026;28;20091;-63
2021/06/10 12:46:11;;;;;;;19.80;17.05;;;32.20;90.60;;;;;;4997476;28;20398;-63
2021/06/10 12:48:37;;;;;;;19.23;17.23;;;32.00;89.50;;;;;;5015301;28;20029;-62
2021/06/10 12:51:23;;;;;;;20.15;17.88;;;32.20;88.00;;;;;;5015752;28;20022;-64
2021/06/10 12:54:07;;;;;;;19.25;17.25;;;32.20;88.20;;;;;;5015350;28;20018;-64
2021/06/10 12:56:47;;;;;;;19.65;17.55;;;32.60;87.80;;;;;;5015466;28;20026;-64
2021/06/10 12:59:20;;;;;;;20.40;17.02;;;32.40;87.10;;;;;;5015573;28;20014;-63
2021/06/10 13:02:11;;;;;;;19.17;17.17;;;31.90;87.50;;;;;;5015300;28;20025;-64
2021/06/10 13:04:46;;;;;;;21.75;16.83;;;32.20;87.40;;;;;;5014605;28;20026;-62
2021/06/10 13:07:38;;;;;;;18.90;16.95;;;32.80;83.60;;;;;;5015409;28;20030;-62
2021/06/10 13:10:05;;;;;;;18.63;16.63;;;32.90;85.50;;;;;;4651457;28;10000640;-63
2021/06/10 13:12:47;;;;;;;19.00;16.67;;;33.00;85.50;;;;;;5007206;28;20041;-64
2021/06/10 13:15:13;;;;;;;18.35;16.23;;;32.40;84.10;;;;;;5020439;28;20156;-65
2021/06/10 13:18:06;;;;;;;20.52;17.75;;;32.70;84.00;;;;;;5021980;28;20060;-64
2021/06/10 13:21:07;;;;;;;19.83;16.05;;;32.30;84.30;;;;;;5016777;28;20064;-64
2021/06/10 13:23:32;;;;;;;18.25;16.35;;;32.20;84.60;;;;;;5002788;28;20136;-64
2021/06/10 13:26:05;;;;;;;18.35;16.40;;;32.50;83.50;;;;;;5021236;28;20099;-64
2021/06/10 13:28:31;;;;;;;24.30;16.63;;;32.60;83.10;;;;;;5021905;28;20033;-64
2021/06/10 13:31:16;;;;;;;17.75;15.82;;;32.00;84.40;;;;;;5018289;28;20026;-64
2021/06/10 13:33:42;;;;;;;18.63;16.70;;;32.50;82.80;;;;;;5005445;28;20392;-64
2021/06/10 13:36:13;;;;;;;19.48;17.48;;;32.00;82.80;;;;;;5019874;28;20022;-64
2021/06/10 13:38:39;;;;;;;18.60;16.60;;;32.20;81.90;;;;;;5020078;28;20155;-65
2021/06/10 13:41:10;;;;;;;18.55;16.65;;;33.00;83.80;;;;;;5016716;28;20468;-65
2021/06/10 13:43:37;;;;;;;18.75;16.75;;;34.00;81.20;;;;;;5024450;28;20021;-63
2021/06/10 13:46:04;;;;;;;18.52;16.30;;;32.80;81.90;;;;;;5019355;28;20481;-64
2021/06/10 13:48:30;;;;;;;18.55;16.55;;;33.60;80.40;;;;;;5015461;28;20030;-63